Port Alsworth, Alaska
Current Conditions -  °F | °C
As of 2:53 PM on Thursday 27 Nov 2014 (Local Time) from PAIL Reporting Station
Broken Clouds Broken Clouds  
Wind Chill: 22°   Ceiling: 12000
Heat Index: 28°   Visibility: 10mi
Dew Point: 26°   Wind: 6mph
Humidity: 92%   Direction: 360°N
Pressure: 30.17"   Gusts: NA
Location:  60.2°N, 154.32°W
Report Text: PAIL 272353Z 36005KT 10SM FEW040 BKN120 M02/M03 A3017 RMK AO2 SLP219 T10221033 11017 21039 56012
Loading
Personal Weather Stations






























Interactive Weather Map New forecast layout! Learn more

10-Day Weather Forecast

Advertisements
Track Severe Weather on mobile